createdAt,value
2022-09-12T00:03:08.145Z,6.10
2022-09-12T00:08:10.009Z,6.80
2022-09-12T00:13:11.721Z,5.80
2022-09-12T00:18:16.010Z,4.40
2022-09-12T00:23:18.665Z,6.30
2022-09-12T00:28:19.863Z,8.30
2022-09-12T00:33:21.647Z,5.30
2022-09-12T00:43:30.034Z,4.90
2022-09-12T00:48:37.563Z,6.80
2022-09-12T00:53:42.959Z,5.70
2022-09-12T00:58:57.796Z,5.60
2022-09-12T01:04:00.534Z,6.80
2022-09-12T01:09:04.111Z,5.90
2022-09-12T01:14:07.082Z,4.60
2022-09-12T01:19:39.936Z,6.20
2022-09-12T01:25:00.011Z,4.50
2022-09-12T01:30:13.730Z,5.30
2022-09-12T01:35:26.988Z,4.10
2022-09-12T01:40:43.202Z,9.50
2022-09-12T01:46:11.144Z,7.30
2022-09-12T01:51:17.277Z,6.60
2022-09-12T01:56:25.793Z,6.30
2022-09-12T02:01:30.214Z,4.90
2022-09-12T02:06:37.740Z,4.50
2022-09-12T02:11:42.840Z,4.40
2022-09-12T02:17:11.409Z,5.70
2022-09-12T02:22:17.016Z,11.70
2022-09-12T02:27:24.334Z,7.30
2022-09-12T02:32:37.501Z,8.00
2022-09-12T02:37:45.314Z,5.90
2022-09-12T02:42:46.512Z,6.80
2022-09-12T02:52:53.996Z,4.20
2022-09-12T02:57:55.199Z,4.10
2022-09-12T03:08:34.657Z,7.40
2022-09-12T03:13:45.844Z,6.60
2022-09-12T03:24:10.526Z,4.40
2022-09-12T03:29:14.289Z,6.80
2022-09-12T03:34:16.066Z,5.70
2022-09-12T03:39:17.714Z,12.90
2022-09-12T03:44:19.212Z,8.60
2022-09-12T03:49:20.429Z,6.30
2022-09-12T03:59:22.680Z,4.40
2022-09-12T04:04:23.941Z,4.90
2022-09-12T04:14:26.241Z,6.00
2022-09-12T04:24:28.689Z,4.70
2022-09-12T04:29:30.778Z,7.00
2022-09-12T04:34:32.005Z,5.60
2022-09-12T04:39:34.794Z,7.40
2022-09-12T04:44:37.082Z,5.80
2022-09-12T04:49:40.113Z,6.30
2022-09-12T04:54:41.247Z,5.90
2022-09-12T04:59:42.643Z,4.30
2022-09-12T05:04:46.155Z,5.50
2022-09-12T05:09:47.426Z,5.30
2022-09-12T05:14:48.664Z,8.90
2022-09-12T05:19:50.289Z,5.40
2022-09-12T05:29:52.780Z,4.90
2022-09-12T05:34:54.085Z,6.00
2022-09-12T05:39:56.355Z,5.90
2022-09-12T05:44:57.881Z,6.40
2022-09-12T05:49:59.118Z,6.40
2022-09-12T06:00:02.245Z,4.50
2022-09-12T06:05:03.790Z,6.10
2022-09-12T06:10:05.290Z,6.60
2022-09-12T06:15:07.351Z,6.20
2022-09-12T06:20:08.947Z,5.80
2022-09-12T06:25:10.136Z,6.80
2022-09-12T06:30:12.111Z,6.50
2022-09-12T06:35:13.546Z,4.80
2022-09-12T06:40:15.230Z,6.40
2022-09-12T06:45:19.176Z,5.20
2022-09-12T06:50:21.575Z,5.70
2022-09-12T06:55:27.637Z,3.50
2022-09-12T07:00:29.327Z,4.70
2022-09-12T07:05:33.115Z,4.10
2022-09-12T07:10:34.347Z,5.20
2022-09-12T07:15:35.994Z,3.80
2022-09-12T07:20:37.670Z,5.50
2022-09-12T07:25:39.206Z,5.10
2022-09-12T07:30:40.754Z,5.00
2022-09-12T07:35:41.951Z,3.40
2022-09-12T07:40:43.465Z,5.10
2022-09-12T07:45:44.683Z,4.40
2022-09-12T07:50:46.198Z,4.20
2022-09-12T07:55:53.812Z,4.00
2022-09-12T08:01:04.901Z,3.90
2022-09-12T08:06:25.606Z,8.00
2022-09-12T08:11:28.838Z,8.60
2022-09-12T08:16:31.135Z,7.80
2022-09-12T08:21:33.626Z,3.00
2022-09-12T08:26:35.316Z,6.40
2022-09-12T08:31:37.429Z,4.10
2022-09-12T08:36:38.539Z,3.50
2022-09-12T08:41:47.132Z,3.70
2022-09-12T08:46:56.614Z,3.60
2022-09-12T08:52:02.424Z,5.20
2022-09-12T08:57:05.290Z,3.50
2022-09-12T09:02:26.496Z,4.40
2022-09-12T09:07:51.750Z,5.50
2022-09-12T09:13:11.730Z,4.50
2022-09-12T09:18:24.300Z,4.20
2022-09-12T09:23:47.642Z,5.20
2022-09-12T09:29:10.752Z,3.40
2022-09-12T09:34:21.330Z,4.60
2022-09-12T09:39:47.674Z,3.20
2022-09-12T09:44:52.986Z,2.90
2022-09-12T09:49:54.179Z,5.10
2022-09-12T09:54:59.092Z,5.70
2022-09-12T10:00:26.479Z,3.10
2022-09-12T10:05:29.015Z,4.60
2022-09-12T10:10:30.505Z,5.00
2022-09-12T10:15:34.031Z,4.30
2022-09-12T10:20:44.538Z,5.30
2022-09-12T10:25:54.281Z,4.10
2022-09-12T10:30:56.147Z,3.90
2022-09-12T10:35:57.857Z,4.30
2022-09-12T10:41:08.906Z,3.50
2022-09-12T10:46:30.550Z,3.70
2022-09-12T10:51:32.280Z,2.80
2022-09-12T10:57:11.799Z,2.80
2022-09-12T11:02:35.071Z,3.60
2022-09-12T11:07:53.368Z,4.70
2022-09-12T11:12:57.703Z,6.50
2022-09-12T11:18:26.268Z,3.10
2022-09-12T11:23:52.882Z,2.50
2022-09-12T11:28:54.224Z,3.60
2022-09-12T11:33:58.522Z,3.40
2022-09-12T11:39:12.717Z,4.40
2022-09-12T11:44:23.042Z,5.30
2022-09-12T11:55:10.603Z,4.60
2022-09-12T12:00:31.521Z,6.00
2022-09-12T12:06:00.776Z,4.80
2022-09-12T12:11:05.428Z,3.40
2022-09-12T12:16:15.227Z,2.70
2022-09-12T12:21:41.734Z,3.30
2022-09-12T12:26:56.599Z,2.20
2022-09-12T12:32:00.188Z,4.20
2022-09-12T12:37:20.432Z,3.50
2022-09-12T12:42:42.426Z,2.90
2022-09-12T12:47:46.888Z,3.50
2022-09-12T12:53:08.945Z,4.40
2022-09-12T12:58:32.505Z,6.90
2022-09-12T13:03:34.478Z,2.20
2022-09-12T13:08:39.968Z,2.50
2022-09-12T13:13:56.474Z,4.00
2022-09-12T13:19:03.817Z,3.20
2022-09-12T13:24:15.185Z,3.40
2022-09-12T13:29:19.174Z,3.80
2022-09-12T13:34:31.243Z,4.50
2022-09-12T13:40:00.644Z,1.80
2022-09-12T13:45:26.372Z,2.50
2022-09-12T13:50:32.747Z,3.20
2022-09-12T13:55:45.426Z,3.60
2022-09-12T14:01:04.726Z,2.50
2022-09-12T14:06:07.733Z,3.50
2022-09-12T14:11:11.224Z,2.60
2022-09-12T14:16:14.709Z,4.80
2022-09-12T14:21:33.354Z,3.70
2022-09-12T14:26:39.827Z,2.90
2022-09-12T14:31:46.200Z,5.50
2022-09-12T14:36:50.295Z,2.90
2022-09-12T14:42:06.348Z,4.00
2022-09-12T14:47:17.975Z,3.80
2022-09-12T14:52:29.198Z,2.00
2022-09-12T14:57:35.692Z,2.70
2022-09-12T15:02:37.974Z,3.00
2022-09-12T15:08:01.879Z,3.70
2022-09-12T15:13:18.687Z,4.60
2022-09-12T15:18:21.472Z,3.40
2022-09-12T15:23:49.049Z,3.80
2022-09-12T15:28:50.734Z,5.20
2022-09-12T15:33:54.075Z,4.20
2022-09-12T15:38:58.060Z,2.90
2022-09-12T15:43:59.835Z,3.00
2022-09-12T15:49:03.896Z,2.60
2022-09-12T15:54:08.206Z,4.30
2022-09-12T15:59:09.558Z,2.40
2022-09-12T16:04:30.427Z,2.10
2022-09-12T16:09:32.705Z,4.20
2022-09-12T16:14:34.736Z,3.30
2022-09-12T16:19:36.591Z,3.70
2022-09-12T16:24:41.175Z,2.90
2022-09-12T16:29:42.777Z,2.50
2022-09-12T16:34:44.172Z,3.10
2022-09-12T16:39:48.196Z,2.50
2022-09-12T16:44:49.977Z,3.20
2022-09-12T16:49:52.818Z,3.80
2022-09-12T16:54:54.234Z,2.50
2022-09-12T16:59:55.992Z,3.40
2022-09-12T17:04:58.710Z,3.60
2022-09-12T17:10:00.487Z,4.00
2022-09-12T17:15:02.402Z,4.10
2022-09-12T17:20:04.417Z,3.00
2022-09-12T17:25:06.412Z,3.40
2022-09-12T17:30:09.158Z,3.20
2022-09-12T17:35:10.846Z,3.70
2022-09-12T17:40:13.297Z,9.70
2022-09-12T17:45:18.448Z,6.30
2022-09-12T17:50:39.263Z,5.80
2022-09-12T17:55:41.112Z,8.20
2022-09-12T18:01:01.012Z,5.00
2022-09-12T18:06:02.273Z,5.90
2022-09-12T18:11:04.915Z,3.20
2022-09-12T18:16:12.022Z,6.90
2022-09-12T18:21:13.528Z,5.20
2022-09-12T18:26:14.934Z,4.80
2022-09-12T18:31:20.235Z,6.30
2022-09-12T18:36:22.391Z,4.80
2022-09-12T18:41:24.679Z,4.60
2022-09-12T18:46:31.773Z,5.10
2022-09-12T18:51:35.519Z,5.30
2022-09-12T18:56:38.649Z,5.10
2022-09-12T19:01:41.605Z,7.10
2022-09-12T19:06:46.111Z,11.70
2022-09-12T19:11:48.955Z,9.60
2022-09-12T19:16:51.361Z,5.40
2022-09-12T19:21:53.360Z,7.70
2022-09-12T19:26:54.642Z,8.90
2022-09-12T19:31:56.572Z,6.80
2022-09-12T19:37:01.448Z,9.70
2022-09-12T19:42:03.039Z,9.10
2022-09-12T19:47:04.251Z,8.40
2022-09-12T19:52:05.529Z,8.80
2022-09-12T19:57:06.806Z,12.10
2022-09-12T20:02:08.020Z,12.20
2022-09-12T20:07:09.529Z,12.30
2022-09-12T20:12:10.816Z,18.80
2022-09-12T20:17:12.073Z,19.30
2022-09-12T20:22:13.377Z,17.70
2022-09-12T20:27:14.781Z,15.10
2022-09-12T20:32:17.635Z,11.10
2022-09-12T20:37:19.111Z,15.90
2022-09-12T20:42:20.370Z,14.40
2022-09-12T20:52:22.937Z,25.80
2022-09-12T21:02:25.385Z,31.40
2022-09-12T21:07:26.865Z,33.90
2022-09-12T21:12:28.042Z,25.60
2022-09-12T21:17:29.169Z,24.30
2022-09-12T21:22:31.253Z,20.80
2022-09-12T21:27:32.755Z,15.90
2022-09-12T21:32:35.333Z,15.00
2022-09-12T21:37:36.465Z,17.00
2022-09-12T21:47:38.700Z,13.00
2022-09-12T21:57:41.969Z,12.60
2022-09-12T22:02:43.448Z,9.20
2022-09-12T22:12:46.459Z,10.40
2022-09-12T22:17:47.991Z,10.10
2022-09-12T22:23:08.388Z,8.50
2022-09-12T22:28:09.736Z,12.70
2022-09-12T22:33:10.897Z,8.30
2022-09-12T22:43:13.666Z,9.90
2022-09-12T22:53:17.926Z,9.30
2022-09-12T22:58:19.028Z,10.40
2022-09-12T23:03:20.735Z,7.80
2022-09-12T23:08:21.950Z,8.50
2022-09-12T23:18:24.466Z,7.30
2022-09-12T23:23:26.257Z,7.10
2022-09-12T23:28:28.226Z,10.30
2022-09-12T23:33:31.142Z,7.90
2022-09-12T23:38:35.543Z,7.30
2022-09-12T23:43:37.143Z,8.30
2022-09-12T23:48:39.409Z,7.20
2022-09-12T23:53:40.941Z,6.60
2022-09-12T23:58:42.239Z,7.70
